Temp: 13.8°C   Baro: 1008.3mb
  Wind: 6.9mph   Dir: WSW (246°)
  Rain: 6.4mm (0.0mm/hr)
  Sun: 246W/m2  Humidity: 92%

Historic data

Bath Spa Weather Station Historical Data
Daily Summary for April 11, 2024 Units:  English    Metric   Both
Daily Weekly Monthly Yearly Custom
  High: Low: Average:
Temperature: 63.1 °F 51.6 °F 56.1 °F
Dew Point: 56.4 °F 49.1 °F 52.7 °F
Humidity: 95% 78.2% 89%
Wind Speed: 9.2mph 0mph 4.4mph
Wind Gust: 15mph - -
Wind- - SW
Pressure: 30.44 in 30.29 in -
Precipitation: 0.01 in    
Historical Graphs
 
 
Tabular Data for April 11, 2024
Time Temperature Dew Point Pressure Wind Wind Speed Wind Gust Humidity Rainfall Rate (Hourly) solar
00:09 53.2 °F 50.9 °F 30.29 in SW 7 mph 11 mph 92% 0.00 in 0 W/m2
00:14 53.2 °F 50.9 °F 30.30 in WSW 5.4 mph 11 mph 92% 0.00 in 0 W/m2
00:19 53.2 °F 50.9 °F 30.30 in WSW 5 mph 10 mph 92% 0.00 in 0 W/m2
00:24 53.2 °F 50.9 °F 30.30 in SW 5 mph 10 mph 92% 0.00 in 0 W/m2
00:29 53.2 °F 50.9 °F 30.30 in SW 5.3 mph 12 mph 92% 0.00 in 0 W/m2
00:34 53.2 °F 50.9 °F 30.30 in SW 7.7 mph 12 mph 92% 0.00 in 0 W/m2
00:39 53.2 °F 50.9 °F 30.30 in SW 5.3 mph 12 mph 92% 0.00 in 0 W/m2
00:44 53.2 °F 50.9 °F 30.30 in SW 6.2 mph 11 mph 92% 0.00 in 0 W/m2
00:49 53.3 °F 51 °F 30.30 in SW 7 mph 10 mph 92% 0.00 in 0 W/m2
00:54 53.4 °F 51.1 °F 30.30 in SW 6.3 mph 10 mph 92% 0.00 in 0 W/m2
00:59 53.4 °F 51.1 °F 30.30 in SSW 5.1 mph 10 mph 92% 0.00 in 0 W/m2
01:04 53.4 °F 51.1 °F 30.30 in SW 4.1 mph 11 mph 92% 0.00 in 0 W/m2
01:09 53.4 °F 51.1 °F 30.30 in SW 4.7 mph 8 mph 92% 0.00 in 0 W/m2
01:14 53.4 °F 51.1 °F 30.30 in SW 4.1 mph 8 mph 92% 0.00 in 0 W/m2
01:19 53.4 °F 51.1 °F 30.30 in SSW 3.6 mph 8 mph 92% 0.00 in 0 W/m2
01:24 53.4 °F 51.1 °F 30.30 in SW 5.2 mph 10 mph 92% 0.00 in 0 W/m2
01:29 53.4 °F 51.1 °F 30.30 in SSW 3.2 mph 9 mph 92% 0.00 in 0 W/m2
01:34 53.4 °F 51.1 °F 30.30 in SW 6.1 mph 9 mph 92% 0.00 in 0 W/m2
01:39 53.4 °F 51.1 °F 30.30 in SW 6 mph 11 mph 92% 0.00 in 0 W/m2
01:44 53.4 °F 51.1 °F 30.30 in SW 7.7 mph 11 mph 92% 0.00 in 0 W/m2
01:49 53.4 °F 51.1 °F 30.30 in SW 5.3 mph 11 mph 92% 0.00 in 0 W/m2
01:54 53.4 °F 51.1 °F 30.30 in SW 6.1 mph 11 mph 92% 0.00 in 0 W/m2
01:59 53.3 °F 51 °F 30.30 in SW 6.8 mph 11 mph 92% 0.00 in 0 W/m2
02:04 53.2 °F 50.9 °F 30.30 in SW 6 mph 11 mph 92% 0.00 in 0 W/m2
02:09 53.2 °F 50.9 °F 30.29 in SSW 7.4 mph 13 mph 92% 0.00 in 0 W/m2
02:14 53.2 °F 50.8 °F 30.29 in SW 4.4 mph 10 mph 92% 0.00 in 0 W/m2
02:19 53.1 °F 50.7 °F 30.30 in SSW 5.1 mph 10 mph 92% 0.00 in 0 W/m2
02:24 53.1 °F 50.7 °F 30.30 in SW 6.8 mph 11 mph 92% 0.00 in 0 W/m2
02:29 53.1 °F 50.7 °F 30.30 in SSW 4.1 mph 11 mph 92% 0.00 in 0 W/m2
02:34 53.1 °F 50.7 °F 30.31 in SSW 4.8 mph 10 mph 92% 0.00 in 0 W/m2
02:39 53.1 °F 50.7 °F 30.30 in SSW 4.7 mph 10 mph 92% 0.00 in 0 W/m2
02:44 52.9 °F 50.5 °F 30.30 in SSW 3.7 mph 10 mph 92% 0.00 in 0 W/m2
02:49 52.9 °F 50.5 °F 30.30 in SSW 6.4 mph 10 mph 92% 0.00 in 0 W/m2
02:54 52.9 °F 50.5 °F 30.30 in SW 4.1 mph 9 mph 92% 0.00 in 0 W/m2
02:59 52.9 °F 50.5 °F 30.30 in SW 5.1 mph 8 mph 92% 0.00 in 0 W/m2
03:04 52.9 °F 50.5 °F 30.30 in WSW 4.7 mph 9 mph 92% 0.00 in 0 W/m2
03:09 52.9 °F 50.5 °F 30.30 in WSW 3.3 mph 9 mph 92% 0.00 in 0 W/m2
03:14 52.9 °F 50.5 °F 30.30 in WSW 3.2 mph 6 mph 92% 0.00 in 0 W/m2
03:19 52.9 °F 50.5 °F 30.31 in SW 3.6 mph 8 mph 92% 0.00 in 0 W/m2
03:24 52.9 °F 50.5 °F 30.31 in WSW 4.6 mph 8 mph 92% 0.00 in 0 W/m2
03:29 52.9 °F 50.5 °F 30.31 in WSW 3.8 mph 8 mph 92% 0.00 in 0 W/m2
03:34 52.9 °F 50.5 °F 30.31 in WSW 4.4 mph 10 mph 92% 0.00 in 0 W/m2
03:39 52.9 °F 50.5 °F 30.31 in WSW 3.6 mph 6 mph 92% 0.00 in 0 W/m2
03:44 52.9 °F 50.5 °F 30.32 in WSW 3.9 mph 7 mph 92% 0.00 in 0 W/m2
03:49 52.9 °F 50.5 °F 30.32 in WSW 4.4 mph 7 mph 92% 0.00 in 0 W/m2
03:54 52.9 °F 50.5 °F 30.32 in SW 5.3 mph 7 mph 92% 0.00 in 0 W/m2
03:59 52.9 °F 50.5 °F 30.31 in SW 4.6 mph 9 mph 92% 0.00 in 0 W/m2
04:04 52.9 °F 50.5 °F 30.32 in SW 3.2 mph 7 mph 92% 0.00 in 0 W/m2
04:09 53.1 °F 50.7 °F 30.32 in WSW 3.7 mph 8 mph 92% 0.00 in 0 W/m2
04:14 53.1 °F 50.7 °F 30.32 in West 2.1 mph 6 mph 92% 0.00 in 0 W/m2
04:19 53.1 °F 50.7 °F 30.32 in West 1.6 mph 3 mph 92% 0.00 in 0 W/m2
04:24 53.1 °F 50.7 °F 30.32 in West 2.4 mph 5 mph 92% 0.00 in 0 W/m2
04:29 53.1 °F 50.7 °F 30.32 in WSW 2.5 mph 5 mph 92% 0.00 in 0 W/m2
04:34 53.1 °F 50.7 °F 30.32 in West 3.5 mph 6 mph 92% 0.00 in 0 W/m2
04:39 53.1 °F 50.7 °F 30.32 in WSW 4 mph 7 mph 92% 0.00 in 0 W/m2
04:44 52.9 °F 50.5 °F 30.32 in WSW 4 mph 8 mph 92% 0.00 in 0 W/m2
04:48 52.9 °F 50.5 °F 30.32 in WSW 3.5 mph 7 mph 92% 0.00 in 0 W/m2
04:54 52.9 °F 50.5 °F 30.32 in WSW 4.1 mph 6 mph 92% 0.00 in 0 W/m2
04:59 52.9 °F 50.7 °F 30.32 in WSW 2.1 mph 6 mph 92.4% 0.00 in 0 W/m2
05:04 52.9 °F 50.9 °F 30.33 in West 1.6 mph 4 mph 93% 0.00 in 0 W/m2
05:09 52.9 °F 50.9 °F 30.33 in West 1.6 mph 4 mph 93% 0.00 in 0 W/m2
05:14 52.9 °F 50.9 °F 30.33 in West 1.2 mph 3 mph 93% 0.00 in 0 W/m2
05:19 52.9 °F 50.9 °F 30.34 in West 2.1 mph 4 mph 93% 0.00 in 0 W/m2
05:24 52.7 °F 50.7 °F 30.34 in West 2.2 mph 4 mph 93% 0.00 in 0 W/m2
05:29 52.7 °F 50.7 °F 30.34 in West 2.9 mph 5 mph 93% 0.00 in 0 W/m2
05:34 52.6 °F 50.6 °F 30.33 in West 3.5 mph 5 mph 93% 0.00 in 0 W/m2
05:39 52.5 °F 50.5 °F 30.34 in SW 3.3 mph 6 mph 93% 0.00 in 0 W/m2
05:44 52.5 °F 50.5 °F 30.34 in SW 2.9 mph 6 mph 93% 0.00 in 0 W/m2
05:49 52.5 °F 50.5 °F 30.34 in SW 0.7 mph 3 mph 93% 0.00 in 0 W/m2
05:54 52.5 °F 50.5 °F 30.34 in Calm   2 mph 93% 0.00 in 0 W/m2
05:59 52.5 °F 50.5 °F 30.34 in SW 0.8 mph 3 mph 93% 0.00 in 0 W/m2
06:04 52.5 °F 50.5 °F 30.34 in SW 2.9 mph 5 mph 93% 0.00 in 0 W/m2
06:09 52.5 °F 50.5 °F 30.34 in WSW 3.1 mph 5 mph 93% 0.00 in 0 W/m2
06:14 52.5 °F 50.5 °F 30.34 in WSW 3.2 mph 6 mph 93% 0.00 in 0 W/m2
06:19 52.4 °F 50.5 °F 30.34 in WSW 2.7 mph 5 mph 93% 0.00 in 0 W/m2
06:24 52.5 °F 50.6 °F 30.34 in WSW 3.2 mph 5 mph 93.4% 0.00 in 0 W/m2
06:29 52.4 °F 50.8 °F 30.34 in WSW 2.4 mph 6 mph 94% 0.00 in 0 W/m2
06:34 52.4 °F 50.8 °F 30.35 in WSW 1.3 mph 4 mph 94% 0.00 in 5 W/m2
06:39 52.3 °F 50.8 °F 30.35 in WSW 0.5 mph 3 mph 94% 0.00 in 7 W/m2
06:44 52.4 °F 50.8 °F 30.36 in WSW 0.5 mph 2 mph 94% 0.00 in 9 W/m2
06:49 52.5 °F 50.9 °F 30.36 in WSW 2.6 mph 4 mph 94% 0.00 in 12 W/m2
06:54 52.5 °F 50.9 °F 30.36 in West 4 mph 6 mph 94% 0.00 in 12 W/m2
06:59 52.5 °F 50.9 °F 30.36 in West 1.8 mph 5 mph 94% 0.00 in 18 W/m2
07:04 52.5 °F 50.9 °F 30.36 in West 2.5 mph 5 mph 94% 0.00 in 14 W/m2
07:09 52.5 °F 50.9 °F 30.36 in WSW 1.8 mph 5 mph 94% 0.00 in 18 W/m2
07:14 52.5 °F 50.9 °F 30.36 in WSW 2.4 mph 3 mph 94% 0.00 in 23 W/m2
07:19 52.5 °F 50.9 °F 30.37 in WSW 3.1 mph 5 mph 94% 0.00 in 39 W/m2
07:24 52.5 °F 50.9 °F 30.37 in WSW 3.6 mph 5 mph 94% 0.00 in 46 W/m2
07:29 52.6 °F 51 °F 30.37 in West 3.5 mph 7 mph 94% 0.00 in 65 W/m2
07:34 52.7 °F 51.1 °F 30.37 in West 2.5 mph 4 mph 94% 0.00 in 97 W/m2
07:39 52.9 °F 51.3 °F 30.37 in WSW 3 mph 5 mph 94% 0.00 in 97 W/m2
07:44 52.9 °F 51.3 °F 30.37 in WSW 2.4 mph 4 mph 94% 0.00 in 113 W/m2
07:49 52.9 °F 51.3 °F 30.37 in WSW 1.5 mph 4 mph 94% 0.00 in 125 W/m2
07:54 53.1 °F 51.4 °F 30.37 in Calm   2 mph 94% 0.00 in 72 W/m2
07:59 53.1 °F 51.4 °F 30.37 in WSW 0.6 mph 2 mph 94% 0.00 in 58 W/m2
08:04 53.1 °F 51.4 °F 30.37 in WSW 1.1 mph 3 mph 94% 0.00 in 51 W/m2
08:09 53.1 °F 51.4 °F 30.37 in WSW 1.1 mph 3 mph 94% 0.00 in 46 W/m2
08:14 53.1 °F 51.4 °F 30.38 in WSW 0.4 mph 2 mph 94% 0.00 in 46 W/m2
08:19 53.1 °F 51.4 °F 30.38 in WSW 2 mph 4 mph 94% 0.01 in 65 W/m2
08:24 53.1 °F 51.4 °F 30.38 in WSW 2 mph 4 mph 94% 0.01 in 72 W/m2
08:29 53.1 °F 51.4 °F 30.39 in WSW 2.8 mph 6 mph 94% 0.01 in 83 W/m2
08:34 53.1 °F 51.4 °F 30.39 in WSW 2.1 mph 6 mph 94% 0.01 in 107 W/m2
08:39 53.2 °F 51.5 °F 30.39 in West 3.7 mph 6 mph 94% 0.01 in 105 W/m2
08:44 53.2 °F 51.6 °F 30.39 in West 3.8 mph 5 mph 94% 0.01 in 123 W/m2
08:49 53.4 °F 51.8 °F 30.39 in West 3.5 mph 6 mph 94% 0.01 in 163 W/m2
08:54 53.4 °F 51.8 °F 30.39 in WSW 4.1 mph 6 mph 94% 0.01 in 156 W/m2
08:59 53.5 °F 51.9 °F 30.39 in SW 3.9 mph 7 mph 94% 0.01 in 181 W/m2
09:04 53.6 °F 52 °F 30.39 in West 3.8 mph 8 mph 94% 0.01 in 190 W/m2
09:09 53.6 °F 52 °F 30.39 in WSW 4.4 mph 8 mph 94% 0.01 in 213 W/m2
09:14 53.6 °F 52 °F 30.39 in SW 3.5 mph 6 mph 94% 0.01 in 186 W/m2
09:19 53.7 °F 52.2 °F 30.40 in SW 2.8 mph 6 mph 94.4% 0.01 in 160 W/m2
09:24 53.8 °F 52.3 °F 30.40 in WSW 2.8 mph 4 mph 95% 0.00 in 141 W/m2
09:29 53.8 °F 52.3 °F 30.40 in WSW 3.2 mph 6 mph 94.6% 0.00 in 179 W/m2
09:34 53.8 °F 52.3 °F 30.40 in SW 4.2 mph 7 mph 95% 0.00 in 220 W/m2
09:39 53.9 °F 52.4 °F 30.40 in WSW 2.3 mph 6 mph 95% 0.00 in 213 W/m2
09:44 54.1 °F 52.7 °F 30.41 in WSW 3.1 mph 6 mph 95% 0.00 in 241 W/m2
09:49 54.1 °F 52.7 °F 30.40 in WSW 2.3 mph 5 mph 95% 0.00 in 151 W/m2
09:54 54.1 °F 52.7 °F 30.40 in SSW 2.8 mph 6 mph 95% 0.00 in 185 W/m2
09:59 54.1 °F 52.7 °F 30.41 in SW 2.9 mph 7 mph 95% 0.00 in 139 W/m2
10:04 54.3 °F 52.9 °F 30.42 in SSW 3.7 mph 7 mph 95% 0.00 in 200 W/m2
10:09 54.5 °F 53 °F 30.42 in SW 2.6 mph 6 mph 95% 0.00 in 169 W/m2
10:14 54.7 °F 53.2 °F 30.42 in WSW 3.2 mph 5 mph 95% 0.00 in 121 W/m2
10:19 54.7 °F 53.2 °F 30.43 in SW 3.4 mph 6 mph 95% 0.00 in 125 W/m2
10:24 54.9 °F 53.2 °F 30.43 in SW 3.3 mph 7 mph 94% 0.00 in 258 W/m2
10:29 55 °F 53.4 °F 30.43 in WSW 3.7 mph 7 mph 94% 0.00 in 260 W/m2
10:34 55.2 °F 53.6 °F 30.43 in West 5.5 mph 8 mph 94% 0.00 in 239 W/m2
10:39 55 °F 53.4 °F 30.42 in West 5.2 mph 8 mph 94% 0.00 in 211 W/m2
10:44 55.2 °F 53.6 °F 30.42 in WSW 4.8 mph 8 mph 94% 0.00 in 243 W/m2
10:49 55.4 °F 53.8 °F 30.43 in WSW 5.6 mph 8 mph 94% 0.00 in 497 W/m2
10:54 55.8 °F 54.2 °F 30.42 in WNW 4.6 mph 8 mph 94% 0.00 in 534 W/m2
10:59 55.9 °F 54.3 °F 30.43 in WSW 5.6 mph 9 mph 94% 0.00 in 508 W/m2
11:04 56 °F 54.4 °F 30.43 in West 7.4 mph 10 mph 94% 0.00 in 369 W/m2
11:09 56 °F 54.4 °F 30.43 in West 4.6 mph 8 mph 94% 0.00 in 385 W/m2
11:14 56.4 °F 54.5 °F 30.43 in West 4.8 mph 8 mph 93.4% 0.00 in 452 W/m2
11:19 56.3 °F 54.3 °F 30.42 in West 6.1 mph 10 mph 93% 0.00 in 439 W/m2
11:24 56.6 °F 54.6 °F 30.43 in West 5.8 mph 11 mph 93% 0.00 in 390 W/m2
11:29 56.8 °F 54.8 °F 30.43 in West 4.5 mph 11 mph 93% 0.00 in 315 W/m2
11:34 57 °F 55 °F 30.43 in WSW 6 mph 9 mph 93% 0.00 in 315 W/m2
11:39 57 °F 54.9 °F 30.43 in WSW 5.6 mph 9 mph 92.8% 0.00 in 267 W/m2
11:44 57.3 °F 54.9 °F 30.43 in WSW 3.5 mph 9 mph 92% 0.00 in 417 W/m2
11:49 57.7 °F 55.4 °F 30.43 in SW 5.6 mph 9 mph 92% 0.00 in 450 W/m2
11:54 58.2 °F 55.6 °F 30.42 in WSW 5 mph 8 mph 91.4% 0.00 in 475 W/m2
11:59 58.5 °F 55.8 °F 30.42 in West 5 mph 8 mph 90.8% 0.00 in 399 W/m2
12:04 58.6 °F 55.8 °F 30.42 in WSW 5.1 mph 10 mph 90.2% 0.00 in 494 W/m2
12:09 58.9 °F 55.8 °F 30.42 in WSW 5 mph 10 mph 89.4% 0.00 in 461 W/m2
12:14 59 °F 55.8 °F 30.42 in West 4.9 mph 10 mph 88.8% 0.00 in 404 W/m2
12:19 59.4 °F 55.8 °F 30.43 in WSW 5.5 mph 10 mph 88% 0.00 in 531 W/m2
12:24 59.6 °F 55.8 °F 30.42 in WSW 6.7 mph 11 mph 87.2% 0.00 in 629 W/m2
12:29 59.9 °F 55.8 °F 30.42 in WSW 7.6 mph 11 mph 86% 0.00 in 675 W/m2
12:34 60.5 °F 55.8 °F 30.43 in SW 6.4 mph 11 mph 84.6% 0.00 in 619 W/m2
12:39 60.7 °F 55.5 °F 30.43 in SW 6 mph 10 mph 83% 0.00 in 396 W/m2
12:44 61 °F 55.6 °F 30.43 in SW 5.8 mph 9 mph 82.4% 0.00 in 403 W/m2
12:49 61 °F 55.1 °F 30.43 in SW 5.4 mph 8 mph 81.4% 0.00 in 360 W/m2
12:54 61.1 °F 55.1 °F 30.43 in WSW 5.2 mph 8 mph 81% 0.00 in 360 W/m2
12:59 61 °F 55 °F 30.43 in WSW 5.3 mph 10 mph 81% 0.00 in 325 W/m2
13:04 60.8 °F 55.1 °F 30.43 in WNW 3.8 mph 9 mph 81.8% 0.00 in 336 W/m2
13:09 60.8 °F 55.1 °F 30.44 in WSW 5.4 mph 8 mph 81.8% 0.00 in 304 W/m2
13:14 61 °F 55 °F 30.43 in WSW 5.2 mph 13 mph 81% 0.00 in 468 W/m2
13:19 61.2 °F 55 °F 30.43 in SW 6.8 mph 13 mph 80.2% 0.00 in 657 W/m2
13:24 61.3 °F 54.8 °F 30.43 in SSW 4.9 mph 9 mph 79% 0.00 in 657 W/m2
13:28 61.4 °F 54.9 °F 30.43 in SSW 4.5 mph 9 mph 79% 0.00 in 420 W/m2
13:34 61.5 °F 54.9 °F 30.43 in WSW 3.9 mph 9 mph 79% 0.00 in 336 W/m2
13:39 61.6 °F 54.9 °F 30.43 in SW 5.7 mph 11 mph 78.8% 0.00 in 385 W/m2
13:44 61.5 °F 54.7 °F 30.43 in SW 6.3 mph 12 mph 78.2% 0.00 in 373 W/m2
13:49 61.5 °F 54.9 °F 30.43 in SW 7.4 mph 12 mph 79% 0.00 in 313 W/m2
13:54 61.6 °F 54.9 °F 30.43 in SSW 4.4 mph 11 mph 79% 0.00 in 329 W/m2
13:59 61.4 °F 54.9 °F 30.42 in SSW 7.3 mph 11 mph 79% 0.00 in 304 W/m2
14:04 61.8 °F 55.4 °F 30.42 in South 2.4 mph 9 mph 79.8% 0.00 in 490 W/m2
14:09 62.2 °F 55.7 °F 30.42 in WSW 5.2 mph 12 mph 79.4% 0.00 in 615 W/m2
14:14 62.4 °F 55.8 °F 30.42 in West 5.1 mph 12 mph 79% 0.00 in 357 W/m2
14:19 62.2 °F 55.5 °F 30.42 in WSW 4.5 mph 11 mph 78.8% 0.00 in 432 W/m2
14:24 62.4 °F 55.8 °F 30.42 in SW 7 mph 11 mph 79% 0.00 in 334 W/m2
14:29 62.3 °F 55.7 °F 30.42 in SW 6.3 mph 10 mph 79% 0.00 in 269 W/m2
14:34 62.1 °F 55.5 °F 30.42 in WSW 7.5 mph 11 mph 79% 0.00 in 257 W/m2
14:39 61.9 °F 55.2 °F 30.42 in SW 6.4 mph 14 mph 79% 0.00 in 308 W/m2
14:44 61.9 °F 55.5 °F 30.42 in SW 4 mph 10 mph 79.8% 0.00 in 294 W/m2
14:49 62 °F 55.7 °F 30.42 in SW 6.1 mph 11 mph 80% 0.00 in 206 W/m2
14:54 61.6 °F 55.3 °F 30.42 in SSW 6.6 mph 11 mph 80% 0.00 in 230 W/m2
14:59 61.5 °F 55.2 °F 30.42 in SW 5.2 mph 11 mph 80% 0.00 in 429 W/m2
15:04 61.8 °F 55.5 °F 30.42 in SW 6.4 mph 12 mph 80% 0.00 in 424 W/m2
15:09 61.5 °F 55.2 °F 30.42 in SSW 7.6 mph 10 mph 80% 0.00 in 209 W/m2
15:14 61.5 °F 55.2 °F 30.42 in SW 4.9 mph 10 mph 80% 0.00 in 276 W/m2
15:19 61.6 °F 55.3 °F 30.42 in SW 4.8 mph 10 mph 80% 0.00 in 251 W/m2
15:24 61.5 °F 55.3 °F 30.41 in WSW 5.6 mph 10 mph 80.2% 0.00 in 216 W/m2
15:29 61.6 °F 55.4 °F 30.42 in SW 4.4 mph 11 mph 80.4% 0.00 in 155 W/m2
15:34 61.5 °F 55.2 °F 30.42 in SSW 4.4 mph 10 mph 80% 0.00 in 225 W/m2
15:39 61.6 °F 55.4 °F 30.41 in SSW 4.6 mph 10 mph 80.4% 0.00 in 265 W/m2
15:44 61.5 °F 55.2 °F 30.41 in SSW 4.8 mph 9 mph 80% 0.00 in 338 W/m2
15:49 61.8 °F 55.5 °F 30.40 in South 3.8 mph 9 mph 80% 0.00 in 352 W/m2
15:54 62.1 °F 55.8 °F 30.40 in SW 5.9 mph 9 mph 80% 0.00 in 255 W/m2
15:59 62.4 °F 56.1 °F 30.40 in SW 4.1 mph 8 mph 80% 0.00 in 332 W/m2
16:04 62.4 °F 55.9 °F 30.40 in SW 7 mph 10 mph 79.2% 0.00 in 455 W/m2
16:09 62.7 °F 56 °F 30.40 in WSW 5.1 mph 10 mph 79% 0.00 in 461 W/m2
16:14 63.1 °F 56.4 °F 30.40 in SW 4.9 mph 8 mph 79% 0.00 in 397 W/m2
16:19 63 °F 56.3 °F 30.40 in SW 4.2 mph 11 mph 79% 0.00 in 306 W/m2
16:24 62.7 °F 56 °F 30.40 in SW 7.9 mph 11 mph 79% 0.00 in 290 W/m2
16:29 62.2 °F 55.7 °F 30.40 in SW 3.6 mph 11 mph 79.2% 0.00 in 172 W/m2
16:34 62.2 °F 55.9 °F 30.40 in SW 6.1 mph 10 mph 80% 0.00 in 178 W/m2
16:39 61.9 °F 55.6 °F 30.41 in SW 9.2 mph 13 mph 80% 0.00 in 255 W/m2
16:44 61.5 °F 55.5 °F 30.40 in SSW 5 mph 11 mph 80.6% 0.00 in 255 W/m2
16:49 62 °F 56 °F 30.40 in SW 2.9 mph 5 mph 81% 0.00 in 139 W/m2
16:54 62 °F 56 °F 30.40 in WSW 5.4 mph 9 mph 81% 0.00 in 102 W/m2
16:59 61.7 °F 55.8 °F 30.40 in SW 6.6 mph 12 mph 81% 0.00 in 135 W/m2
17:04 61.4 °F 55.7 °F 30.40 in SSW 4.7 mph 11 mph 81.6% 0.00 in 148 W/m2
17:09 61.2 °F 55.6 °F 30.40 in SSW 3.6 mph 11 mph 82% 0.00 in 65 W/m2
17:14 61.1 °F 55.5 °F 30.40 in SSW 5.6 mph 11 mph 82% 0.00 in 86 W/m2
17:19 60.7 °F 55.4 °F 30.40 in South 4.4 mph 11 mph 82.8% 0.00 in 132 W/m2
17:24 60.5 °F 55.3 °F 30.40 in SSW 5 mph 11 mph 83% 0.00 in 135 W/m2
17:29 60.3 °F 55.2 °F 30.39 in SSW 5.2 mph 11 mph 83.2% 0.00 in 197 W/m2
17:34 60.3 °F 55.4 °F 30.39 in SSW 6 mph 11 mph 84% 0.00 in 155 W/m2
17:39 60.4 °F 55.6 °F 30.39 in SW 8 mph 15 mph 84% 0.00 in 190 W/m2
17:44 60.5 °F 55.7 °F 30.39 in WSW 7 mph 13 mph 84% 0.00 in 178 W/m2
17:49 60.4 °F 55.2 °F 30.40 in SW 7.4 mph 14 mph 83% 0.00 in 278 W/m2
17:54 60.9 °F 55.7 °F 30.40 in SW 4.4 mph 9 mph 83% 0.00 in 225 W/m2
17:59 60.7 °F 55.5 °F 30.40 in SW 8 mph 13 mph 83% 0.00 in 107 W/m2
18:04 60.4 °F 55.2 °F 30.40 in SSW 4 mph 10 mph 83% 0.00 in 49 W/m2
18:09 60.2 °F 55 °F 30.39 in SW 5.6 mph 10 mph 83% 0.00 in 139 W/m2
18:14 60.1 °F 55.1 °F 30.39 in SW 4.5 mph 8 mph 83.4% 0.00 in 193 W/m2
18:19 60.3 °F 55.4 °F 30.40 in SSW 4.4 mph 8 mph 84% 0.00 in 139 W/m2
18:24 60.4 °F 55.5 °F 30.40 in SW 5.1 mph 10 mph 83.8% 0.00 in 107 W/m2
18:29 60.4 °F 55.2 °F 30.40 in SW 5.2 mph 10 mph 83% 0.00 in 113 W/m2
18:34 60.4 °F 55.2 °F 30.40 in SSW 6.1 mph 13 mph 83% 0.00 in 100 W/m2
18:39 60.3 °F 55 °F 30.40 in SW 4.9 mph 10 mph 83% 0.00 in 42 W/m2
18:44 60.3 °F 55 °F 30.40 in SW 5 mph 11 mph 83% 0.00 in 90 W/m2
18:49 60.2 °F 55.1 °F 30.40 in SW 6.3 mph 13 mph 83.4% 0.00 in 98 W/m2
18:54 60.1 °F 55.2 °F 30.40 in SSW 5.5 mph 13 mph 84% 0.00 in 74 W/m2
18:59 60.1 °F 55.2 °F 30.40 in SSW 4.1 mph 9 mph 84% 0.00 in 65 W/m2
19:04 60.1 °F 55.2 °F 30.40 in SSW 4 mph 10 mph 84% 0.00 in 40 W/m2
19:09 59.8 °F 54.9 °F 30.40 in SSW 5.4 mph 11 mph 84% 0.00 in 23 W/m2
19:14 59.5 °F 54.6 °F 30.40 in SSE 4.1 mph 9 mph 84% 0.00 in 16 W/m2
19:19 59.2 °F 54.3 °F 30.40 in SSE 3.2 mph 7 mph 84% 0.00 in 18 W/m2
19:24 59 °F 54.1 °F 30.40 in South 3.7 mph 10 mph 84% 0.00 in 32 W/m2
19:29 58.7 °F 54.1 °F 30.40 in South 4.2 mph 9 mph 84.8% 0.00 in 39 W/m2
19:34 58.5 °F 54 °F 30.40 in SSW 4.1 mph 10 mph 85% 0.00 in 11 W/m2
19:39 58.4 °F 53.9 °F 30.40 in SSW 4.5 mph 9 mph 85% 0.00 in 7 W/m2
19:44 58.3 °F 53.8 °F 30.40 in SSW 4.8 mph 9 mph 85% 0.00 in 0 W/m2
19:49 58 °F 53.5 °F 30.40 in South 4.3 mph 10 mph 85% 0.00 in 0 W/m2
19:54 57.8 °F 53.3 °F 30.40 in SSW 4.8 mph 7 mph 85% 0.00 in 0 W/m2
19:59 57.7 °F 53.2 °F 30.40 in South 2.5 mph 7 mph 85% 0.00 in 0 W/m2
20:04 57.5 °F 53.2 °F 30.40 in SSW 4.4 mph 9 mph 85.6% 0.00 in 0 W/m2
20:09 57.2 °F 53.1 °F 30.40 in South 3.2 mph 9 mph 86% 0.00 in 0 W/m2
20:14 57 °F 52.9 °F 30.40 in SSW 3.8 mph 12 mph 86% 0.00 in 0 W/m2
20:19 56.8 °F 52.7 °F 30.40 in South 3.2 mph 9 mph 86% 0.00 in 0 W/m2
20:24 56.8 °F 52.6 °F 30.40 in SSW 4.8 mph 9 mph 86% 0.00 in 0 W/m2
20:29 56.5 °F 52.3 °F 30.40 in SSW 4.8 mph 10 mph 86% 0.00 in 0 W/m2
20:34 56.5 °F 52.3 °F 30.41 in SSW 5.2 mph 11 mph 86% 0.00 in 0 W/m2
20:39 56.3 °F 52.3 °F 30.41 in SSW 4 mph 11 mph 86.4% 0.00 in 0 W/m2
20:44 56.1 °F 52.3 °F 30.41 in SSW 6.4 mph 10 mph 87% 0.00 in 0 W/m2
20:49 55.9 °F 52.2 °F 30.41 in SSW 4.2 mph 10 mph 87% 0.00 in 0 W/m2
20:54 55.9 °F 52.2 °F 30.41 in South 5.1 mph 10 mph 87% 0.00 in 0 W/m2
20:59 55.9 °F 52.2 °F 30.42 in South 2.5 mph 10 mph 87% 0.00 in 0 W/m2
21:04 55.8 °F 52 °F 30.42 in South 5.1 mph 9 mph 87% 0.00 in 0 W/m2
21:09 55.6 °F 52 °F 30.42 in SSW 4.1 mph 10 mph 87.4% 0.00 in 0 W/m2
21:14 55.4 °F 51.7 °F 30.42 in SSW 3.6 mph 10 mph 87.4% 0.00 in 0 W/m2
21:19 55.1 °F 51.7 °F 30.42 in SSW 5.6 mph 11 mph 88% 0.00 in 0 W/m2
21:24 55 °F 51.6 °F 30.43 in SSW 5.9 mph 13 mph 88% 0.00 in 0 W/m2
21:29 54.9 °F 51.4 °F 30.42 in SSW 7.4 mph 10 mph 88% 0.00 in 0 W/m2
21:34 54.6 °F 51.2 °F 30.42 in SSW 7 mph 11 mph 88% 0.00 in 0 W/m2
21:39 54.5 °F 51.1 °F 30.42 in SSW 4.7 mph 8 mph 88% 0.00 in 0 W/m2
21:44 54.3 °F 51.1 °F 30.42 in South 4.7 mph 10 mph 88.8% 0.00 in 0 W/m2
21:49 54.1 °F 50.7 °F 30.42 in SW 5.2 mph 9 mph 88.6% 0.00 in 0 W/m2
21:54 53.9 °F 50.6 °F 30.42 in SSW 9 mph 14 mph 89% 0.00 in 0 W/m2
21:59 53.7 °F 50.5 °F 30.42 in South 5.3 mph 14 mph 89% 0.00 in 0 W/m2
22:04 53.5 °F 50.3 °F 30.42 in South 4.5 mph 8 mph 89% 0.00 in 0 W/m2
22:08 53.5 °F 50.3 °F 30.43 in South 2.7 mph 7 mph 89% 0.00 in 0 W/m2
22:14 53.4 °F 50.2 °F 30.43 in South 4.7 mph 9 mph 89% 0.00 in 0 W/m2
22:19 53.2 °F 50.3 °F 30.43 in South 4.5 mph 10 mph 89.8% 0.00 in 0 W/m2
22:24 53.2 °F 50.4 °F 30.43 in South 4 mph 9 mph 90% 0.00 in 0 W/m2
22:29 53.1 °F 50.2 °F 30.42 in SSW 4 mph 9 mph 90% 0.00 in 0 W/m2
22:34 53 °F 50.1 °F 30.42 in SSW 4.5 mph 10 mph 90% 0.00 in 0 W/m2
22:39 52.9 °F 50 °F 30.42 in SSW 5.4 mph 12 mph 90% 0.00 in 0 W/m2
22:44 52.8 °F 49.9 °F 30.43 in SSW 4.6 mph 9 mph 90% 0.00 in 0 W/m2
22:49 52.8 °F 49.9 °F 30.43 in South 3.5 mph 12 mph 90% 0.00 in 0 W/m2
22:54 52.6 °F 49.8 °F 30.43 in South 4.1 mph 9 mph 90.2% 0.00 in 0 W/m2
22:59 52.5 °F 49.8 °F 30.43 in South 5.5 mph 8 mph 90.4% 0.00 in 0 W/m2
23:04 52.3 °F 49.6 °F 30.43 in South 2.8 mph 8 mph 90.2% 0.00 in 0 W/m2
23:09 52.3 °F 49.8 °F 30.42 in SSE 4.4 mph 9 mph 91% 0.00 in 0 W/m2
23:14 52.2 °F 49.6 °F 30.42 in SSW 3.2 mph 8 mph 91% 0.00 in 0 W/m2
23:19 52.2 °F 49.6 °F 30.42 in SSW 3.6 mph 7 mph 91% 0.00 in 0 W/m2
23:24 52.1 °F 49.6 °F 30.42 in SSW 3.2 mph 6 mph 91% 0.00 in 0 W/m2
23:29 52 °F 49.5 °F 30.42 in SSW 3.3 mph 7 mph 91% 0.00 in 0 W/m2
23:34 52 °F 49.5 °F 30.42 in SSW 3.7 mph 9 mph 91% 0.00 in 0 W/m2
23:39 52 °F 49.5 °F 30.42 in SSW 3.9 mph 8 mph 91% 0.00 in 0 W/m2
23:44 51.8 °F 49.3 °F 30.42 in SW 5.8 mph 9 mph 91% 0.00 in 0 W/m2
23:49 51.7 °F 49.2 °F 30.42 in WSW 5 mph 9 mph 91% 0.00 in 0 W/m2
23:54 51.6 °F 49.1 °F 30.42 in SW 4 mph 9 mph 91% 0.00 in 0 W/m2
23:59 51.6 °F 49.1 °F 30.42 in SSW 6.2 mph 10 mph 91% 0.00 in 0 W/m2
Bath Spa Weather
Compliments of Weather Underground - 2 mb